Terminal Aerodrome Forecast
Issued by NWS

Home | Current Version | Previous Version | Text Only | Print | Product List | Glossary On
Versions: 1 2 3 4 5 6 7 8 9 10 11 12 13 14 15
000
FTUS43 KOAX 271739
TAFCDR
TAF
KCDR 271739Z 2718/2818 35009KT P6SM VCSH SCT070
      TEMPO 2719/2722 35015G23KT 5SM -SHRA BKN025 BKN050
     FM272200 33008KT P6SM BKN100=

USA.gov is the U.S. government's official web portal to all federal, state and local government web resources and services.